sensor_id;sensor_type;location;lat;lon;timestamp;pressure;altitude;pressure_sealevel;temperature;humidity
58622;BME280;44389;51.578;5.456;2024-03-08T00:01:39;101656.31;;;1.67;100.00
58622;BME280;44389;51.578;5.456;2024-03-08T00:04:04;101652.88;;;1.66;100.00
58622;BME280;44389;51.578;5.456;2024-03-08T00:06:31;101655.06;;;1.61;100.00
58622;BME280;44389;51.578;5.456;2024-03-08T00:08:57;101640.84;;;1.53;100.00
58622;BME280;44389;51.578;5.456;2024-03-08T00:11:22;101642.63;;;1.54;100.00
58622;BME280;44389;51.578;5.456;2024-03-08T00:13:51;101643.75;;;1.58;100.00
58622;BME280;44389;51.578;5.456;2024-03-08T00:16:17;101643.91;;;1.49;100.00
58622;BME280;44389;51.578;5.456;2024-03-08T00:18:44;101635.06;;;1.44;100.00
58622;BME280;44389;51.578;5.456;2024-03-08T00:21:09;101628.44;;;1.46;100.00
58622;BME280;44389;51.578;5.456;2024-03-08T00:23:35;101634.28;;;1.45;100.00
58622;BME280;44389;51.578;5.456;2024-03-08T00:26:00;101630.72;;;1.43;100.00
58622;BME280;44389;51.578;5.456;2024-03-08T00:28:25;101626.81;;;1.36;100.00
58622;BME280;44389;51.578;5.456;2024-03-08T00:30:52;101629.75;;;1.41;100.00
58622;BME280;44389;51.578;5.456;2024-03-08T00:33:17;101622.63;;;1.37;100.00
58622;BME280;44389;51.578;5.456;2024-03-08T00:35:43;101624.94;;;1.34;100.00
58622;BME280;44389;51.578;5.456;2024-03-08T00:38:08;101619.31;;;1.38;100.00
58622;BME280;44389;51.578;5.456;2024-03-08T00:40:33;101618.31;;;1.36;100.00
58622;BME280;44389;51.578;5.456;2024-03-08T00:42:58;101615.63;;;1.34;100.00
58622;BME280;44389;51.578;5.456;2024-03-08T00:45:24;101615.53;;;1.33;100.00
58622;BME280;44389;51.578;5.456;2024-03-08T00:47:49;101608.66;;;1.31;100.00
58622;BME280;44389;51.578;5.456;2024-03-08T00:50:15;101615.69;;;1.24;100.00
58622;BME280;44389;51.578;5.456;2024-03-08T00:52:40;101609.94;;;1.26;100.00
58622;BME280;44389;51.578;5.456;2024-03-08T00:55:06;101609.72;;;1.23;100.00
58622;BME280;44389;51.578;5.456;2024-03-08T00:57:33;101600.22;;;1.21;100.00
58622;BME280;44389;51.578;5.456;2024-03-08T00:59:58;101597.69;;;1.10;100.00
58622;BME280;44389;51.578;5.456;2024-03-08T01:02:24;101600.34;;;1.12;100.00
58622;BME280;44389;51.578;5.456;2024-03-08T01:04:49;101594.44;;;1.01;100.00
58622;BME280;44389;51.578;5.456;2024-03-08T01:07:15;101581.97;;;1.04;100.00
58622;BME280;44389;51.578;5.456;2024-03-08T01:09:40;101586.19;;;1.04;100.00
58622;BME280;44389;51.578;5.456;2024-03-08T01:12:06;101591.91;;;1.01;100.00
58622;BME280;44389;51.578;5.456;2024-03-08T01:14:33;101587.69;;;1.02;100.00
58622;BME280;44389;51.578;5.456;2024-03-08T01:16:58;101579.31;;;1.03;100.00
58622;BME280;44389;51.578;5.456;2024-03-08T01:19:24;101578.09;;;0.87;100.00
58622;BME280;44389;51.578;5.456;2024-03-08T01:21:49;101577.69;;;0.93;100.00
58622;BME280;44389;51.578;5.456;2024-03-08T01:24:14;101578.59;;;0.93;100.00
58622;BME280;44389;51.578;5.456;2024-03-08T01:26:40;101569.31;;;0.94;100.00
58622;BME280;44389;51.578;5.456;2024-03-08T01:29:05;101562.22;;;0.90;100.00
58622;BME280;44389;51.578;5.456;2024-03-08T01:31:31;101569.09;;;0.80;100.00
58622;BME280;44389;51.578;5.456;2024-03-08T01:33:57;101566.81;;;0.84;100.00
58622;BME280;44389;51.578;5.456;2024-03-08T01:36:22;101564.38;;;0.85;100.00
58622;BME280;44389;51.578;5.456;2024-03-08T01:38:48;101568.97;;;0.89;100.00
58622;BME280;44389;51.578;5.456;2024-03-08T01:41:13;101560.72;;;0.81;100.00
58622;BME280;44389;51.578;5.456;2024-03-08T01:43:41;101562.88;;;0.77;100.00
58622;BME280;44389;51.578;5.456;2024-03-08T01:46:07;101567.22;;;0.78;100.00
58622;BME280;44389;51.578;5.456;2024-03-08T01:48:34;101555.91;;;0.74;100.00
58622;BME280;44389;51.578;5.456;2024-03-08T01:51:00;101554.53;;;0.68;100.00
58622;BME280;44389;51.578;5.456;2024-03-08T01:53:26;101551.25;;;0.69;100.00
58622;BME280;44389;51.578;5.456;2024-03-08T01:55:54;101553.63;;;0.67;100.00
58622;BME280;44389;51.578;5.456;2024-03-08T01:58:22;101548.44;;;0.65;100.00
58622;BME280;44389;51.578;5.456;2024-03-08T02:00:48;101545.41;;;0.59;100.00
58622;BME280;44389;51.578;5.456;2024-03-08T02:03:17;101538.69;;;0.60;100.00
58622;BME280;44389;51.578;5.456;2024-03-08T02:05:43;101536.81;;;0.57;100.00
58622;BME280;44389;51.578;5.456;2024-03-08T02:08:09;101530.44;;;0.62;100.00
58622;BME280;44389;51.578;5.456;2024-03-08T02:10:44;101534.50;;;0.50;100.00
58622;BME280;44389;51.578;5.456;2024-03-08T02:13:10;101530.34;;;0.51;100.00
58622;BME280;44389;51.578;5.456;2024-03-08T02:18:20;101525.66;;;0.45;100.00
58622;BME280;44389;51.578;5.456;2024-03-08T02:20:52;101524.66;;;0.43;100.00
58622;BME280;44389;51.578;5.456;2024-03-08T02:23:19;101519.84;;;0.36;100.00
58622;BME280;44389;51.578;5.456;2024-03-08T02:25:44;101522.88;;;0.31;100.00
58622;BME280;44389;51.578;5.456;2024-03-08T02:28:13;101515.53;;;0.24;100.00
58622;BME280;44389;51.578;5.456;2024-03-08T02:30:39;101507.41;;;0.28;100.00
58622;BME280;44389;51.578;5.456;2024-03-08T02:33:05;101506.13;;;0.23;100.00
58622;BME280;44389;51.578;5.456;2024-03-08T02:35:31;101498.81;;;0.26;100.00
58622;BME280;44389;51.578;5.456;2024-03-08T02:37:56;101495.25;;;0.24;100.00
58622;BME280;44389;51.578;5.456;2024-03-08T02:40:22;101500.31;;;0.24;100.00
58622;BME280;44389;51.578;5.456;2024-03-08T02:42:47;101497.25;;;0.28;100.00
58622;BME280;44389;51.578;5.456;2024-03-08T02:45:13;101491.97;;;0.25;100.00
58622;BME280;44389;51.578;5.456;2024-03-08T02:47:38;101502.97;;;0.26;100.00
58622;BME280;44389;51.578;5.456;2024-03-08T02:50:05;101493.75;;;0.26;100.00
58622;BME280;44389;51.578;5.456;2024-03-08T02:52:33;101489.41;;;0.25;100.00
58622;BME280;44389;51.578;5.456;2024-03-08T02:54:58;101485.09;;;0.24;100.00
58622;BME280;44389;51.578;5.456;2024-03-08T02:57:23;101486.03;;;0.14;100.00
58622;BME280;44389;51.578;5.456;2024-03-08T02:59:49;101479.53;;;0.08;100.00
58622;BME280;44389;51.578;5.456;2024-03-08T03:02:15;101474.34;;;0.06;100.00
58622;BME280;44389;51.578;5.456;2024-03-08T03:04:41;101474.75;;;0.11;100.00
58622;BME280;44389;51.578;5.456;2024-03-08T03:07:07;101470.31;;;0.08;100.00
58622;BME280;44389;51.578;5.456;2024-03-08T03:09:32;101464.34;;;0.08;100.00
58622;BME280;44389;51.578;5.456;2024-03-08T03:11:58;101466.63;;;0.05;100.00
58622;BME280;44389;51.578;5.456;2024-03-08T03:14:23;101470.94;;;0.06;100.00
58622;BME280;44389;51.578;5.456;2024-03-08T03:16:49;101465.13;;;0.07;100.00
58622;BME280;44389;51.578;5.456;2024-03-08T03:19:15;101456.72;;;0.08;100.00
58622;BME280;44389;51.578;5.456;2024-03-08T03:21:40;101467.50;;;0.05;100.00
58622;BME280;44389;51.578;5.456;2024-03-08T03:24:08;101457.53;;;-0.04;100.00
58622;BME280;44389;51.578;5.456;2024-03-08T03:26:36;101454.88;;;-0.05;100.00
58622;BME280;44389;51.578;5.456;2024-03-08T03:29:07;101452.69;;;-0.01;100.00
58622;BME280;44389;51.578;5.456;2024-03-08T03:31:34;101452.19;;;-0.07;100.00
58622;BME280;44389;51.578;5.456;2024-03-08T03:34:00;101443.19;;;-0.13;100.00
58622;BME280;44389;51.578;5.456;2024-03-08T03:36:31;101446.88;;;-0.10;100.00
58622;BME280;44389;51.578;5.456;2024-03-08T03:38:57;101445.38;;;-0.08;100.00
58622;BME280;44389;51.578;5.456;2024-03-08T03:41:37;101447.63;;;-0.11;100.00
58622;BME280;44389;51.578;5.456;2024-03-08T03:44:04;101451.94;;;-0.10;100.00
58622;BME280;44389;51.578;5.456;2024-03-08T03:46:30;101440.31;;;-0.08;100.00
58622;BME280;44389;51.578;5.456;2024-03-08T03:48:55;101440.78;;;-0.12;100.00
58622;BME280;44389;51.578;5.456;2024-03-08T03:51:21;101430.16;;;-0.08;100.00
58622;BME280;44389;51.578;5.456;2024-03-08T03:53:46;101439.28;;;-0.20;100.00
58622;BME280;44389;51.578;5.456;2024-03-08T03:56:12;101437.25;;;-0.14;100.00
58622;BME280;44389;51.578;5.456;2024-03-08T03:58:37;101434.72;;;-0.14;100.00
58622;BME280;44389;51.578;5.456;2024-03-08T04:01:04;101431.56;;;-0.22;100.00
58622;BME280;44389;51.578;5.456;2024-03-08T04:03:30;101429.16;;;-0.20;100.00
58622;BME280;44389;51.578;5.456;2024-03-08T04:05:55;101434.22;;;-0.20;100.00
58622;BME280;44389;51.578;5.456;2024-03-08T04:08:20;101430.94;;;-0.19;100.00
58622;BME280;44389;51.578;5.456;2024-03-08T04:10:46;101422.94;;;-0.24;100.00
58622;BME280;44389;51.578;5.456;2024-03-08T04:13:11;101420.81;;;-0.29;100.00
58622;BME280;44389;51.578;5.456;2024-03-08T04:15:36;101415.09;;;-0.27;100.00
58622;BME280;44389;51.578;5.456;2024-03-08T04:18:03;101417.00;;;-0.24;100.00
58622;BME280;44389;51.578;5.456;2024-03-08T04:20:28;101420.28;;;-0.25;100.00
58622;BME280;44389;51.578;5.456;2024-03-08T04:22:54;101411.03;;;-0.25;100.00
58622;BME280;44389;51.578;5.456;2024-03-08T04:25:20;101418.78;;;-0.34;100.00
58622;BME280;44389;51.578;5.456;2024-03-08T04:27:45;101422.56;;;-0.39;100.00
58622;BME280;44389;51.578;5.456;2024-03-08T04:30:12;101404.22;;;-0.36;100.00
58622;BME280;44389;51.578;5.456;2024-03-08T04:32:37;101409.13;;;-0.38;100.00
58622;BME280;44389;51.578;5.456;2024-03-08T04:35:03;101404.34;;;-0.35;100.00
58622;BME280;44389;51.578;5.456;2024-03-08T04:37:29;101407.88;;;-0.43;100.00
58622;BME280;44389;51.578;5.456;2024-03-08T04:39:57;101411.66;;;-0.38;100.00
58622;BME280;44389;51.578;5.456;2024-03-08T04:42:23;101409.13;;;-0.38;100.00
58622;BME280;44389;51.578;5.456;2024-03-08T04:44:48;101406.59;;;-0.38;100.00
58622;BME280;44389;51.578;5.456;2024-03-08T04:47:14;101408.00;;;-0.41;100.00
58622;BME280;44389;51.578;5.456;2024-03-08T04:49:39;101406.47;;;-0.39;100.00
58622;BME280;44389;51.578;5.456;2024-03-08T04:52:04;101397.25;;;-0.39;100.00
58622;BME280;44389;51.578;5.456;2024-03-08T04:54:30;101398.38;;;-0.45;100.00
58622;BME280;44389;51.578;5.456;2024-03-08T04:56:56;101405.31;;;-0.43;100.00
58622;BME280;44389;51.578;5.456;2024-03-08T04:59:22;101389.66;;;-0.49;100.00
58622;BME280;44389;51.578;5.456;2024-03-08T05:01:47;101392.31;;;-0.47;100.00
58622;BME280;44389;51.578;5.456;2024-03-08T05:04:13;101389.88;;;-0.56;100.00
58622;BME280;44389;51.578;5.456;2024-03-08T05:06:38;101394.84;;;-0.58;100.00
58622;BME280;44389;51.578;5.456;2024-03-08T05:09:04;101379.66;;;-0.58;100.00
58622;BME280;44389;51.578;5.456;2024-03-08T05:11:42;101390.41;;;-0.60;100.00
58622;BME280;44389;51.578;5.456;2024-03-08T05:14:08;101383.31;;;-0.64;100.00
58622;BME280;44389;51.578;5.456;2024-03-08T05:16:33;101384.44;;;-0.61;100.00
58622;BME280;44389;51.578;5.456;2024-03-08T05:18:59;101381.78;;;-0.62;100.00
58622;BME280;44389;51.578;5.456;2024-03-08T05:21:24;101383.03;;;-0.57;100.00
58622;BME280;44389;51.578;5.456;2024-03-08T05:23:50;101378.25;;;-0.64;100.00
58622;BME280;44389;51.578;5.456;2024-03-08T05:26:16;101372.28;;;-0.55;100.00
58622;BME280;44389;51.578;5.456;2024-03-08T05:28:41;101379.25;;;-0.62;100.00
58622;BME280;44389;51.578;5.456;2024-03-08T05:31:07;101375.56;;;-0.66;100.00
58622;BME280;44389;51.578;5.456;2024-03-08T05:33:32;101376.84;;;-0.71;100.00
58622;BME280;44389;51.578;5.456;2024-03-08T05:36:00;101377.22;;;-0.67;100.00
58622;BME280;44389;51.578;5.456;2024-03-08T05:38:28;101368.25;;;-0.63;100.00
58622;BME280;44389;51.578;5.456;2024-03-08T05:40:54;101373.81;;;-0.67;100.00
58622;BME280;44389;51.578;5.456;2024-03-08T05:43:20;101371.13;;;-0.69;100.00
58622;BME280;44389;51.578;5.456;2024-03-08T05:45:46;101363.81;;;-0.65;100.00
58622;BME280;44389;51.578;5.456;2024-03-08T05:48:11;101359.75;;;-0.74;100.00
58622;BME280;44389;51.578;5.456;2024-03-08T05:50:39;101366.97;;;-0.68;100.00
58622;BME280;44389;51.578;5.456;2024-03-08T05:53:04;101355.31;;;-0.76;100.00
58622;BME280;44389;51.578;5.456;2024-03-08T05:55:33;101353.69;;;-0.76;100.00
58622;BME280;44389;51.578;5.456;2024-03-08T05:58:01;101351.38;;;-0.83;100.00
58622;BME280;44389;51.578;5.456;2024-03-08T06:00:27;101349.88;;;-0.81;100.00
58622;BME280;44389;51.578;5.456;2024-03-08T06:02:52;101352.78;;;-0.76;100.00
58622;BME280;44389;51.578;5.456;2024-03-08T06:05:17;101350.53;;;-0.84;100.00
58622;BME280;44389;51.578;5.456;2024-03-08T06:07:43;101363.06;;;-0.75;100.00
58622;BME280;44389;51.578;5.456;2024-03-08T06:10:09;101358.34;;;-0.80;100.00
58622;BME280;44389;51.578;5.456;2024-03-08T06:12:35;101346.84;;;-0.77;100.00
58622;BME280;44389;51.578;5.456;2024-03-08T06:15:06;101349.13;;;-0.80;100.00
58622;BME280;44389;51.578;5.456;2024-03-08T06:17:31;101338.09;;;-0.80;100.00
58622;BME280;44389;51.578;5.456;2024-03-08T06:19:56;101340.91;;;-0.77;100.00
58622;BME280;44389;51.578;5.456;2024-03-08T06:22:22;101344.81;;;-0.81;100.00
58622;BME280;44389;51.578;5.456;2024-03-08T06:24:47;101337.88;;;-0.73;100.00
58622;BME280;44389;51.578;5.456;2024-03-08T06:27:12;101334.44;;;-0.74;100.00
58622;BME280;44389;51.578;5.456;2024-03-08T06:29:39;101330.41;;;-0.82;100.00
58622;BME280;44389;51.578;5.456;2024-03-08T06:32:04;101333.81;;;-0.71;100.00
58622;BME280;44389;51.578;5.456;2024-03-08T06:34:32;101330.63;;;-0.79;100.00
58622;BME280;44389;51.578;5.456;2024-03-08T06:36:59;101325.22;;;-0.73;100.00
58622;BME280;44389;51.578;5.456;2024-03-08T06:39:26;101321.94;;;-0.72;100.00
58622;BME280;44389;51.578;5.456;2024-03-08T06:41:51;101324.69;;;-0.69;100.00
58622;BME280;44389;51.578;5.456;2024-03-08T06:44:16;101325.34;;;-0.61;100.00
58622;BME280;44389;51.578;5.456;2024-03-08T06:46:42;101322.03;;;-0.60;100.00
58622;BME280;44389;51.578;5.456;2024-03-08T06:49:07;101320.91;;;-0.54;100.00
58622;BME280;44389;51.578;5.456;2024-03-08T06:51:34;101312.78;;;-0.50;100.00
58622;BME280;44389;51.578;5.456;2024-03-08T06:54:00;101316.22;;;-0.49;100.00
58622;BME280;44389;51.578;5.456;2024-03-08T06:56:25;101316.97;;;-0.40;100.00
58622;BME280;44389;51.578;5.456;2024-03-08T06:58:50;101317.97;;;-0.38;100.00
58622;BME280;44389;51.578;5.456;2024-03-08T07:01:16;101315.94;;;-0.31;100.00
58622;BME280;44389;51.578;5.456;2024-03-08T07:03:42;101318.72;;;-0.28;100.00
58622;BME280;44389;51.578;5.456;2024-03-08T07:06:11;101307.06;;;-0.26;100.00
58622;BME280;44389;51.578;5.456;2024-03-08T07:08:36;101311.09;;;-0.18;100.00
58622;BME280;44389;51.578;5.456;2024-03-08T07:11:02;101309.81;;;-0.13;100.00
58622;BME280;44389;51.578;5.456;2024-03-08T07:13:27;101309.41;;;-0.07;100.00
58622;BME280;44389;51.578;5.456;2024-03-08T07:15:53;101303.06;;;-0.02;100.00
58622;BME280;44389;51.578;5.456;2024-03-08T07:18:18;101300.25;;;0.05;100.00
58622;BME280;44389;51.578;5.456;2024-03-08T07:20:44;101300.50;;;0.08;100.00
58622;BME280;44389;51.578;5.456;2024-03-08T07:23:09;101306.16;;;0.16;100.00
58622;BME280;44389;51.578;5.456;2024-03-08T07:25:35;101297.03;;;0.18;100.00
58622;BME280;44389;51.578;5.456;2024-03-08T07:28:01;101297.75;;;0.27;100.00
58622;BME280;44389;51.578;5.456;2024-03-08T07:30:26;101297.75;;;0.27;100.00
58622;BME280;44389;51.578;5.456;2024-03-08T07:33:10;101305.31;;;0.38;100.00
58622;BME280;44389;51.578;5.456;2024-03-08T07:35:39;101292.13;;;0.42;100.00
58622;BME280;44389;51.578;5.456;2024-03-08T07:38:05;101302.44;;;0.55;100.00
58622;BME280;44389;51.578;5.456;2024-03-08T07:40:40;101292.75;;;0.61;100.00
58622;BME280;44389;51.578;5.456;2024-03-08T07:43:09;101298.78;;;0.74;100.00
58622;BME280;44389;51.578;5.456;2024-03-08T07:45:36;101288.97;;;0.78;100.00
58622;BME280;44389;51.578;5.456;2024-03-08T07:48:01;101289.25;;;0.93;100.00
58622;BME280;44389;51.578;5.456;2024-03-08T07:50:28;101293.03;;;0.98;100.00
58622;BME280;44389;51.578;5.456;2024-03-08T07:52:54;101285.09;;;1.06;100.00
58622;BME280;44389;51.578;5.456;2024-03-08T07:55:19;101278.84;;;1.12;100.00
58622;BME280;44389;51.578;5.456;2024-03-08T07:57:45;101280.63;;;1.25;100.00
58622;BME280;44389;51.578;5.456;2024-03-08T08:00:11;101276.13;;;1.45;100.00
58622;BME280;44389;51.578;5.456;2024-03-08T08:02:36;101272.03;;;1.47;100.00
58622;BME280;44389;51.578;5.456;2024-03-08T08:05:02;101276.91;;;1.68;100.00
58622;BME280;44389;51.578;5.456;2024-03-08T08:07:29;101259.25;;;1.69;100.00
58622;BME280;44389;51.578;5.456;2024-03-08T08:09:54;101265.75;;;1.89;100.00
58622;BME280;44389;51.578;5.456;2024-03-08T08:12:19;101254.03;;;1.91;100.00
58622;BME280;44389;51.578;5.456;2024-03-08T08:14:44;101258.56;;;1.95;100.00
58622;BME280;44389;51.578;5.456;2024-03-08T08:17:10;101252.69;;;2.08;100.00
58622;BME280;44389;51.578;5.456;2024-03-08T08:19:35;101249.97;;;2.30;100.00
58622;BME280;44389;51.578;5.456;2024-03-08T08:22:03;101254.16;;;2.42;100.00
58622;BME280;44389;51.578;5.456;2024-03-08T08:24:29;101247.72;;;2.47;100.00
58622;BME280;44389;51.578;5.456;2024-03-08T08:26:55;101239.38;;;2.61;100.00
58622;BME280;44389;51.578;5.456;2024-03-08T08:29:20;101238.28;;;2.83;100.00
58622;BME280;44389;51.578;5.456;2024-03-08T08:31:47;101240.66;;;2.93;100.00
58622;BME280;44389;51.578;5.456;2024-03-08T08:34:12;101233.94;;;3.07;100.00
58622;BME280;44389;51.578;5.456;2024-03-08T08:36:38;101234.25;;;3.25;100.00
58622;BME280;44389;51.578;5.456;2024-03-08T08:39:04;101227.13;;;3.33;100.00
58622;BME280;44389;51.578;5.456;2024-03-08T08:41:30;101224.94;;;3.39;100.00
58622;BME280;44389;51.578;5.456;2024-03-08T08:43:57;101218.78;;;3.49;100.00
58622;BME280;44389;51.578;5.456;2024-03-08T08:46:22;101217.03;;;3.48;100.00
58622;BME280;44389;51.578;5.456;2024-03-08T08:48:47;101224.78;;;3.63;100.00
58622;BME280;44389;51.578;5.456;2024-03-08T08:51:12;101218.97;;;3.79;100.00
58622;BME280;44389;51.578;5.456;2024-03-08T08:53:39;101217.97;;;3.90;100.00
58622;BME280;44389;51.578;5.456;2024-03-08T08:56:07;101223.25;;;3.93;100.00
58622;BME280;44389;51.578;5.456;2024-03-08T08:58:33;101208.53;;;4.03;100.00
58622;BME280;44389;51.578;5.456;2024-03-08T09:00:58;101205.72;;;4.26;100.00
58622;BME280;44389;51.578;5.456;2024-03-08T09:03:25;101208.47;;;4.29;100.00
58622;BME280;44389;51.578;5.456;2024-03-08T09:05:52;101209.16;;;4.55;100.00
58622;BME280;44389;51.578;5.456;2024-03-08T09:08:17;101207.59;;;4.57;100.00
58622;BME280;44389;51.578;5.456;2024-03-08T09:10:43;101201.66;;;4.87;100.00
58622;BME280;44389;51.578;5.456;2024-03-08T09:13:08;101187.38;;;5.05;98.24
58622;BME280;44389;51.578;5.456;2024-03-08T09:15:35;101187.88;;;5.15;96.16
58622;BME280;44389;51.578;5.456;2024-03-08T09:18:01;101180.47;;;5.34;98.22
58622;BME280;44389;51.578;5.456;2024-03-08T09:20:27;101172.78;;;5.34;95.60
58622;BME280;44389;51.578;5.456;2024-03-08T09:22:52;101180.16;;;5.59;93.00
58622;BME280;44389;51.578;5.456;2024-03-08T09:25:18;101191.25;;;5.60;89.31
58622;BME280;44389;51.578;5.456;2024-03-08T09:27:43;101173.44;;;5.61;87.92
58622;BME280;44389;51.578;5.456;2024-03-08T09:30:09;101172.84;;;5.66;87.28
58622;BME280;44389;51.578;5.456;2024-03-08T09:32:34;101165.31;;;5.69;88.04
58622;BME280;44389;51.578;5.456;2024-03-08T09:34:59;101154.63;;;5.92;87.69
58622;BME280;44389;51.578;5.456;2024-03-08T09:37:26;101157.25;;;6.25;86.29
58622;BME280;44389;51.578;5.456;2024-03-08T09:39:51;101139.81;;;6.35;85.30
58622;BME280;44389;51.578;5.456;2024-03-08T09:42:17;101141.78;;;6.57;82.18
58622;BME280;44389;51.578;5.456;2024-03-08T09:44:46;101143.22;;;6.52;77.20
58622;BME280;44389;51.578;5.456;2024-03-08T09:47:13;101132.56;;;6.61;77.79
58622;BME280;44389;51.578;5.456;2024-03-08T09:49:39;101117.41;;;6.82;78.32
58622;BME280;44389;51.578;5.456;2024-03-08T09:52:06;101113.47;;;7.06;75.58
58622;BME280;44389;51.578;5.456;2024-03-08T09:54:32;101120.56;;;7.48;72.66
58622;BME280;44389;51.578;5.456;2024-03-08T09:56:58;101112.38;;;7.75;70.35
58622;BME280;44389;51.578;5.456;2024-03-08T09:59:24;101100.22;;;7.71;67.08
58622;BME280;44389;51.578;5.456;2024-03-08T10:01:52;101092.53;;;7.90;69.39
58622;BME280;44389;51.578;5.456;2024-03-08T10:04:18;101088.00;;;7.85;65.12
58622;BME280;44389;51.578;5.456;2024-03-08T10:06:45;101078.00;;;7.91;66.55
58622;BME280;44389;51.578;5.456;2024-03-08T10:09:12;101076.78;;;8.63;68.96
58622;BME280;44389;51.578;5.456;2024-03-08T10:11:37;101075.84;;;8.82;64.63
58622;BME280;44389;51.578;5.456;2024-03-08T10:14:08;101067.38;;;9.05;62.29
58622;BME280;44389;51.578;5.456;2024-03-08T10:16:34;101066.91;;;9.16;60.45
58622;BME280;44389;51.578;5.456;2024-03-08T10:19:02;101068.22;;;9.51;60.93
58622;BME280;44389;51.578;5.456;2024-03-08T10:21:31;101076.38;;;9.62;57.49
58622;BME280;44389;51.578;5.456;2024-03-08T10:23:58;101050.78;;;9.67;57.35
58622;BME280;44389;51.578;5.456;2024-03-08T10:26:24;101058.88;;;9.53;55.93
58622;BME280;44389;51.578;5.456;2024-03-08T10:28:51;101056.66;;;9.17;55.90
58622;BME280;44389;51.578;5.456;2024-03-08T10:31:18;101058.50;;;9.43;58.81
58622;BME280;44389;51.578;5.456;2024-03-08T10:33:44;101048.34;;;9.47;57.45
58622;BME280;44389;51.578;5.456;2024-03-08T10:36:11;101048.22;;;9.67;57.70
58622;BME280;44389;51.578;5.456;2024-03-08T10:38:38;101039.28;;;10.31;63.27
58622;BME280;44389;51.578;5.456;2024-03-08T10:41:13;101032.31;;;10.53;57.29
58622;BME280;44389;51.578;5.456;2024-03-08T10:49:16;101022.47;;;10.67;52.68
58622;BME280;44389;51.578;5.456;2024-03-08T10:51:42;101011.16;;;10.63;51.87
58622;BME280;44389;51.578;5.456;2024-03-08T10:54:09;101016.97;;;10.83;53.61
58622;BME280;44389;51.578;5.456;2024-03-08T10:56:35;101006.75;;;10.86;53.25
58622;BME280;44389;51.578;5.456;2024-03-08T10:59:01;101007.28;;;10.76;51.73
58622;BME280;44389;51.578;5.456;2024-03-08T11:01:27;100996.59;;;11.22;53.42
58622;BME280;44389;51.578;5.456;2024-03-08T11:03:52;100998.31;;;11.21;51.39
58622;BME280;44389;51.578;5.456;2024-03-08T11:09:02;100987.41;;;11.01;50.17
58622;BME280;44389;51.578;5.456;2024-03-08T11:11:29;100985.06;;;11.09;50.12
58622;BME280;44389;51.578;5.456;2024-03-08T11:13:59;100977.50;;;10.59;49.72
58622;BME280;44389;51.578;5.456;2024-03-08T11:18:50;100969.44;;;10.75;50.06
58622;BME280;44389;51.578;5.456;2024-03-08T11:21:17;100969.25;;;10.69;51.41
58622;BME280;44389;51.578;5.456;2024-03-08T11:23:42;100958.84;;;11.24;51.51
58622;BME280;44389;51.578;5.456;2024-03-08T11:26:19;100968.25;;;11.23;49.80
58622;BME280;44389;51.578;5.456;2024-03-08T11:28:45;100948.66;;;11.60;49.90
58622;BME280;44389;51.578;5.456;2024-03-08T11:33:40;100948.63;;;11.59;47.83
58622;BME280;44389;51.578;5.456;2024-03-08T11:36:12;100930.19;;;11.46;48.14
58622;BME280;44389;51.578;5.456;2024-03-08T11:38:44;100939.31;;;11.33;48.60
58622;BME280;44389;51.578;5.456;2024-03-08T11:41:10;100932.56;;;11.39;48.53
58622;BME280;44389;51.578;5.456;2024-03-08T11:43:40;100938.84;;;11.79;49.62
58622;BME280;44389;51.578;5.456;2024-03-08T11:46:10;100933.34;;;11.98;48.81
58622;BME280;44389;51.578;5.456;2024-03-08T11:48:47;100925.31;;;12.61;48.57
58622;BME280;44389;51.578;5.456;2024-03-08T11:51:14;100931.25;;;12.57;47.33
58622;BME280;44389;51.578;5.456;2024-03-08T11:53:40;100924.84;;;12.79;44.68
58622;BME280;44389;51.578;5.456;2024-03-08T11:56:13;100923.06;;;12.38;43.15
58622;BME280;44389;51.578;5.456;2024-03-08T11:58:40;100926.97;;;12.21;43.08
58622;BME280;44389;51.578;5.456;2024-03-08T12:01:06;100925.06;;;12.13;42.59
58622;BME280;44389;51.578;5.456;2024-03-08T12:03:32;100932.50;;;11.99;42.46
58622;BME280;44389;51.578;5.456;2024-03-08T12:06:01;100907.06;;;11.81;42.72
58622;BME280;44389;51.578;5.456;2024-03-08T12:08:30;100905.31;;;11.80;42.60
58622;BME280;44389;51.578;5.456;2024-03-08T12:10:56;100909.56;;;11.80;42.64
58622;BME280;44389;51.578;5.456;2024-03-08T12:13:29;100914.50;;;11.70;41.93
58622;BME280;44389;51.578;5.456;2024-03-08T12:15:58;100892.34;;;11.79;42.12
58622;BME280;44389;51.578;5.456;2024-03-08T12:18:26;100896.25;;;11.64;42.42
58622;BME280;44389;51.578;5.456;2024-03-08T12:21:13;100885.22;;;11.68;43.80
58622;BME280;44389;51.578;5.456;2024-03-08T12:23:39;100889.00;;;11.49;42.87
58622;BME280;44389;51.578;5.456;2024-03-08T12:26:22;100885.00;;;11.61;42.79
58622;BME280;44389;51.578;5.456;2024-03-08T12:28:51;100868.47;;;11.54;42.02
58622;BME280;44389;51.578;5.456;2024-03-08T12:31:17;100870.53;;;11.34;42.41
58622;BME280;44389;51.578;5.456;2024-03-08T12:33:52;100867.47;;;11.49;43.67
58622;BME280;44389;51.578;5.456;2024-03-08T12:36:19;100879.25;;;12.05;42.48
58622;BME280;44389;51.578;5.456;2024-03-08T12:38:48;100854.63;;;12.21;41.80
58622;BME280;44389;51.578;5.456;2024-03-08T12:41:17;100857.97;;;12.15;42.13
58622;BME280;44389;51.578;5.456;2024-03-08T12:43:46;100844.25;;;12.17;42.20
58622;BME280;44389;51.578;5.456;2024-03-08T12:46:15;100852.88;;;12.19;41.15
58622;BME280;44389;51.578;5.456;2024-03-08T12:48:41;100847.00;;;12.25;40.01
58622;BME280;44389;51.578;5.456;2024-03-08T12:51:07;100826.25;;;12.24;40.67
58622;BME280;44389;51.578;5.456;2024-03-08T12:53:34;100836.25;;;11.73;40.36
58622;BME280;44389;51.578;5.456;2024-03-08T12:55:59;100835.81;;;11.55;40.70
58622;BME280;44389;51.578;5.456;2024-03-08T12:58:24;100830.47;;;11.48;41.70
58622;BME280;44389;51.578;5.456;2024-03-08T13:00:51;100816.63;;;11.80;42.73